createdAt,value
2018-10-16T00:00:21.627Z,24.83
2018-10-16T00:02:50.608Z,24.17
2018-10-16T00:05:19.576Z,19.83
2018-10-16T00:07:48.646Z,22.60
2018-10-16T00:10:23.169Z,20.33
2018-10-16T00:12:52.337Z,18.87
2018-10-16T00:15:21.556Z,18.57
2018-10-16T00:17:50.495Z,20.77
2018-10-16T00:20:19.897Z,23.43
2018-10-16T00:22:48.888Z,24.57
2018-10-16T00:25:18.407Z,19.37
2018-10-16T00:27:47.448Z,22.30
2018-10-16T00:30:16.728Z,22.57
2018-10-16T00:32:45.851Z,23.50
2018-10-16T00:35:14.972Z,20.73
2018-10-16T00:37:43.918Z,19.93
2018-10-16T00:40:12.825Z,24.30
2018-10-16T00:42:42.045Z,22.33
2018-10-16T00:45:12.022Z,21.30
2018-10-16T00:47:41.265Z,21.77
2018-10-16T00:50:10.556Z,17.93
2018-10-16T00:52:39.797Z,23.97
2018-10-16T00:55:10.015Z,21.03
2018-10-16T00:57:39.966Z,22.67
2018-10-16T01:00:09.800Z,21.37
2018-10-16T01:02:39.063Z,24.70
2018-10-16T01:05:09.126Z,23.17
2018-10-16T01:07:39.454Z,20.40
2018-10-16T01:10:09.839Z,21.17
2018-10-16T01:12:39.475Z,19.30
2018-10-16T01:15:09.716Z,19.47
2018-10-16T01:17:39.845Z,20.27
2018-10-16T01:20:11.000Z,20.00
2018-10-16T01:22:40.854Z,18.03
2018-10-16T01:25:11.321Z,19.77
2018-10-16T01:27:41.274Z,21.50
2018-10-16T01:30:10.551Z,19.20
2018-10-16T01:32:39.727Z,19.27
2018-10-16T01:35:10.458Z,20.17
2018-10-16T01:37:39.530Z,20.07
2018-10-16T01:40:09.553Z,19.33
2018-10-16T01:42:38.782Z,19.27
2018-10-16T01:45:08.282Z,20.07
2018-10-16T01:47:37.574Z,20.97
2018-10-16T01:50:07.229Z,17.40
2018-10-16T01:52:36.846Z,18.30
2018-10-16T01:55:05.973Z,18.57
2018-10-16T01:57:35.078Z,17.20
2018-10-16T02:00:05.126Z,21.17
2018-10-16T02:02:34.169Z,25.73
2018-10-16T02:05:03.059Z,17.60
2018-10-16T02:07:32.072Z,20.80
2018-10-16T02:10:01.094Z,23.13
2018-10-16T02:12:30.267Z,18.00
2018-10-16T02:14:59.567Z,21.70
2018-10-16T02:17:28.716Z,21.00
2018-10-16T02:19:57.602Z,20.77
2018-10-16T02:22:27.095Z,24.10
2018-10-16T02:24:56.936Z,21.10
2018-10-16T02:27:26.014Z,21.93
2018-10-16T02:29:55.480Z,20.30
2018-10-16T02:32:24.569Z,19.57
2018-10-16T02:34:53.456Z,19.73
2018-10-16T02:37:22.727Z,23.20
2018-10-16T02:39:51.834Z,20.80
2018-10-16T02:42:21.204Z,19.90
2018-10-16T02:44:50.180Z,21.70
2018-10-16T02:47:19.351Z,18.63
2018-10-16T02:49:48.408Z,19.33
2018-10-16T02:52:17.446Z,18.60
2018-10-16T02:54:46.605Z,20.40
2018-10-16T02:57:15.839Z,24.77
2018-10-16T02:59:44.924Z,24.63
2018-10-16T03:02:14.070Z,23.77
2018-10-16T03:04:43.048Z,26.17
2018-10-16T03:07:12.158Z,22.60
2018-10-16T03:09:41.567Z,24.60
2018-10-16T03:12:10.788Z,22.80
2018-10-16T03:14:39.753Z,21.53
2018-10-16T03:17:08.714Z,21.77
2018-10-16T03:19:37.906Z,23.63
2018-10-16T03:22:07.126Z,24.67
2018-10-16T03:24:36.366Z,27.43
2018-10-16T03:27:05.661Z,22.27
2018-10-16T03:29:34.751Z,25.50
2018-10-16T03:32:03.964Z,27.97
2018-10-16T03:34:33.170Z,23.90
2018-10-16T03:37:02.360Z,21.83
2018-10-16T03:39:31.299Z,24.73
2018-10-16T03:42:00.490Z,23.77
2018-10-16T03:44:29.809Z,23.10
2018-10-16T03:46:58.924Z,26.50
2018-10-16T03:49:27.999Z,22.63
2018-10-16T03:51:56.810Z,25.13
2018-10-16T03:54:26.221Z,23.77
2018-10-16T03:56:55.298Z,26.40
2018-10-16T03:59:24.508Z,23.17
2018-10-16T04:01:53.386Z,23.10
2018-10-16T04:04:22.558Z,28.90
2018-10-16T04:06:51.980Z,23.17
2018-10-16T04:09:21.284Z,23.77
2018-10-16T04:11:50.387Z,21.33
2018-10-16T04:14:19.762Z,21.23
2018-10-16T04:16:48.863Z,24.57
2018-10-16T04:19:18.067Z,24.73
2018-10-16T04:21:48.183Z,21.93
2018-10-16T04:24:17.448Z,20.73
2018-10-16T04:26:46.557Z,20.33
2018-10-16T04:29:15.375Z,21.00
2018-10-16T04:31:44.413Z,22.67
2018-10-16T04:34:13.639Z,24.50
2018-10-16T04:36:42.789Z,23.43
2018-10-16T04:39:13.665Z,21.77
2018-10-16T04:41:43.480Z,31.20
2018-10-16T04:44:12.684Z,26.27
2018-10-16T04:46:42.918Z,25.43
2018-10-16T04:49:12.017Z,26.07
2018-10-16T04:51:41.297Z,26.53
2018-10-16T04:54:10.804Z,25.03
2018-10-16T04:56:39.777Z,23.90
2018-10-16T04:59:08.583Z,26.03
2018-10-16T05:01:37.808Z,26.53
2018-10-16T05:04:07.008Z,28.93
2018-10-16T05:06:35.992Z,27.57
2018-10-16T05:09:06.690Z,29.40
2018-10-16T05:11:40.624Z,28.53
2018-10-16T05:14:09.734Z,26.07
2018-10-16T05:16:38.899Z,25.07
2018-10-16T05:19:08.175Z,29.20
2018-10-16T05:21:37.384Z,25.97
2018-10-16T05:24:06.559Z,29.80
2018-10-16T05:26:36.707Z,25.23
2018-10-16T05:29:06.380Z,26.57
2018-10-16T05:31:35.693Z,28.20
2018-10-16T05:34:05.134Z,26.37
2018-10-16T05:36:34.010Z,22.63
2018-10-16T05:39:03.274Z,27.07
2018-10-16T05:41:32.429Z,29.17
2018-10-16T05:44:01.606Z,32.43
2018-10-16T05:46:31.035Z,34.73
2018-10-16T05:49:00.120Z,32.93
2018-10-16T05:51:29.168Z,36.93
2018-10-16T05:53:58.293Z,39.37
2018-10-16T05:56:27.567Z,38.00
2018-10-16T05:58:56.695Z,40.40
2018-10-16T06:01:25.891Z,36.70
2018-10-16T06:03:54.973Z,38.87
2018-10-16T06:06:24.186Z,34.37
2018-10-16T06:08:55.019Z,31.07
2018-10-16T06:11:24.311Z,33.13
2018-10-16T06:13:53.410Z,31.87
2018-10-16T06:16:22.507Z,36.13
2018-10-16T06:18:51.707Z,37.37
2018-10-16T06:21:20.880Z,39.37
2018-10-16T06:23:50.074Z,31.57
2018-10-16T06:26:19.161Z,34.10
2018-10-16T06:28:48.088Z,32.57
2018-10-16T06:31:17.254Z,35.33
2018-10-16T06:33:46.775Z,36.80
2018-10-16T06:36:16.187Z,44.80
2018-10-16T06:38:45.450Z,32.80
2018-10-16T06:41:14.750Z,31.03
2018-10-16T06:43:43.943Z,29.30
2018-10-16T06:46:13.167Z,29.30
2018-10-16T06:48:42.512Z,29.83
2018-10-16T06:51:11.197Z,30.33
2018-10-16T06:53:40.206Z,29.57
2018-10-16T06:56:09.386Z,30.90
2018-10-16T06:58:38.334Z,29.33
2018-10-16T07:01:07.468Z,29.23
2018-10-16T07:03:36.553Z,29.07
2018-10-16T07:06:05.484Z,30.20
2018-10-16T07:08:34.589Z,26.17
2018-10-16T07:11:03.502Z,29.67
2018-10-16T07:13:32.776Z,26.07
2018-10-16T07:16:01.701Z,24.40
2018-10-16T07:18:30.780Z,24.93
2018-10-16T07:21:00.133Z,21.93
2018-10-16T07:23:29.352Z,20.33
2018-10-16T07:25:58.601Z,25.25
2018-10-16T07:28:27.861Z,19.60
2018-10-16T07:30:56.945Z,21.87
2018-10-16T07:33:25.981Z,19.10
2018-10-16T07:35:55.675Z,22.97
2018-10-16T07:38:24.971Z,23.83
2018-10-16T07:40:55.398Z,18.07
2018-10-16T07:43:24.728Z,17.60
2018-10-16T07:45:53.889Z,15.37
2018-10-16T07:48:23.243Z,14.53
2018-10-16T07:50:52.243Z,17.00
2018-10-16T07:53:21.050Z,15.20
2018-10-16T07:55:50.196Z,16.93
2018-10-16T07:58:19.269Z,14.27
2018-10-16T08:00:48.569Z,12.93
2018-10-16T08:03:17.744Z,14.10
2018-10-16T08:05:46.814Z,12.03
2018-10-16T08:08:15.869Z,12.27
2018-10-16T08:10:45.667Z,12.33
2018-10-16T08:13:14.778Z,14.23
2018-10-16T08:15:44.077Z,11.53
2018-10-16T08:18:13.096Z,11.50
2018-10-16T08:20:42.298Z,10.60
2018-10-16T08:23:11.549Z,12.43
2018-10-16T08:25:41.231Z,9.30
2018-10-16T08:28:10.210Z,13.00
2018-10-16T08:30:39.358Z,8.83
2018-10-16T08:33:08.368Z,10.93
2018-10-16T08:35:37.469Z,9.70
2018-10-16T08:38:21.448Z,9.00
2018-10-16T08:40:50.513Z,7.93
2018-10-16T08:43:26.671Z,9.60
2018-10-16T08:46:00.984Z,8.17
2018-10-16T08:48:35.243Z,8.23
2018-10-16T08:51:09.729Z,8.40
2018-10-16T08:53:39.180Z,9.43
2018-10-16T08:56:08.368Z,10.50
2018-10-16T08:58:37.330Z,8.57
2018-10-16T09:01:06.428Z,8.03
2018-10-16T09:03:35.756Z,9.00
2018-10-16T09:06:04.696Z,9.28
2018-10-16T09:08:34.569Z,7.37
2018-10-16T09:11:03.625Z,7.93
2018-10-16T09:13:32.661Z,7.63
2018-10-16T09:16:01.791Z,5.93
2018-10-16T09:18:30.641Z,8.07
2018-10-16T09:20:59.796Z,6.10
2018-10-16T09:23:28.885Z,5.60
2018-10-16T09:25:57.895Z,5.57
2018-10-16T09:28:27.414Z,4.70
2018-10-16T09:30:56.573Z,6.77
2018-10-16T09:33:25.765Z,4.00
2018-10-16T09:35:54.956Z,3.77
2018-10-16T09:38:23.893Z,3.57
2018-10-16T09:40:52.857Z,5.70
2018-10-16T09:43:22.136Z,5.73
2018-10-16T09:45:51.183Z,6.83
2018-10-16T09:48:20.206Z,4.73
2018-10-16T09:50:49.045Z,4.33
2018-10-16T09:53:18.178Z,4.63
2018-10-16T09:55:47.195Z,5.03
2018-10-16T09:58:16.426Z,3.90
2018-10-16T10:00:51.074Z,5.00
2018-10-16T10:03:20.064Z,4.00
2018-10-16T10:05:49.353Z,4.23
2018-10-16T10:08:18.557Z,4.03
2018-10-16T10:10:47.760Z,4.47
2018-10-16T10:13:17.019Z,5.53
2018-10-16T10:15:46.291Z,5.03
2018-10-16T10:18:15.439Z,4.40
2018-10-16T10:20:44.737Z,3.87
2018-10-16T10:23:14.347Z,3.47
2018-10-16T10:25:43.084Z,4.00
2018-10-16T10:28:12.334Z,6.93
2018-10-16T10:30:41.550Z,4.80
2018-10-16T10:33:10.608Z,5.00
2018-10-16T10:35:40.059Z,3.57
2018-10-16T10:38:09.036Z,4.73
2018-10-16T10:40:38.398Z,4.90
2018-10-16T10:43:07.495Z,4.67
2018-10-16T10:45:36.762Z,3.57
2018-10-16T10:48:05.799Z,3.10
2018-10-16T10:50:34.854Z,4.53
2018-10-16T10:53:03.714Z,4.07
2018-10-16T10:55:32.815Z,3.30
2018-10-16T10:58:01.879Z,2.73
2018-10-16T11:00:31.035Z,4.20
2018-10-16T11:03:00.284Z,3.33
2018-10-16T11:05:29.444Z,3.13
2018-10-16T11:07:58.627Z,3.17
2018-10-16T11:10:27.867Z,2.73
2018-10-16T11:12:57.275Z,4.30
2018-10-16T11:15:26.479Z,2.87
2018-10-16T11:17:55.643Z,2.73
2018-10-16T11:20:24.695Z,2.37
2018-10-16T11:22:53.620Z,2.20
2018-10-16T11:25:22.848Z,1.50
2018-10-16T11:27:52.033Z,3.20
2018-10-16T11:30:21.248Z,1.37
2018-10-16T11:32:50.440Z,1.00
2018-10-16T11:35:19.728Z,0.90
2018-10-16T11:37:49.380Z,1.80
2018-10-16T11:40:18.450Z,1.87
2018-10-16T11:42:47.589Z,1.23
2018-10-16T11:45:16.692Z,1.27
2018-10-16T11:47:45.878Z,1.20
2018-10-16T11:50:15.195Z,1.33
2018-10-16T11:52:44.192Z,0.97
2018-10-16T11:55:13.124Z,2.83
2018-10-16T11:57:42.106Z,1.83
2018-10-16T12:00:13.215Z,1.50
2018-10-16T12:02:42.659Z,1.47
2018-10-16T12:05:11.847Z,3.47
2018-10-16T12:07:42.529Z,0.80
2018-10-16T12:10:11.557Z,0.57
2018-10-16T12:12:40.660Z,1.43
2018-10-16T12:15:09.733Z,0.73
2018-10-16T12:17:43.045Z,0.63
2018-10-16T12:20:21.959Z,0.70
2018-10-16T12:22:50.957Z,0.50
2018-10-16T12:25:20.640Z,1.10
2018-10-16T12:27:49.561Z,2.40
2018-10-16T12:30:18.415Z,0.70
2018-10-16T12:32:47.863Z,0.60
2018-10-16T12:35:16.998Z,1.90
2018-10-16T12:37:46.060Z,0.60
2018-10-16T12:40:15.444Z,1.40
2018-10-16T12:42:44.565Z,1.13
2018-10-16T12:45:13.804Z,2.70
2018-10-16T12:47:42.843Z,3.43
2018-10-16T12:50:12.074Z,3.23
2018-10-16T12:52:41.196Z,2.57
2018-10-16T12:55:10.830Z,6.47
2018-10-16T12:57:39.843Z,3.30
2018-10-16T13:00:09.051Z,5.27
2018-10-16T13:02:38.084Z,1.33
2018-10-16T13:05:07.556Z,2.20
2018-10-16T13:07:38.606Z,1.63
2018-10-16T13:10:10.214Z,1.37
2018-10-16T13:12:39.295Z,2.50
2018-10-16T13:15:09.980Z,2.93
2018-10-16T13:17:39.117Z,3.13
2018-10-16T13:20:09.484Z,2.73
2018-10-16T13:22:38.894Z,4.13
2018-10-16T13:25:09.504Z,1.03
2018-10-16T13:27:39.290Z,3.37
2018-10-16T13:30:09.802Z,1.07
2018-10-16T13:32:38.634Z,1.47
2018-10-16T13:35:09.640Z,6.80
2018-10-16T13:37:38.848Z,74.40
2018-10-16T13:40:08.671Z,63.00
2018-10-16T13:42:38.003Z,50.93
2018-10-16T13:45:08.228Z,45.90
2018-10-16T13:47:37.254Z,14.63
2018-10-16T13:50:07.855Z,10.83
2018-10-16T13:52:37.052Z,70.83
2018-10-16T13:55:06.145Z,119.20
2018-10-16T13:57:35.303Z,51.10
2018-10-16T14:00:05.237Z,120.40
2018-10-16T14:02:34.397Z,493.95
2018-10-16T14:05:03.393Z,462.47
2018-10-16T14:07:32.355Z,354.60
2018-10-16T14:10:01.583Z,129.13
2018-10-16T14:12:30.887Z,243.00
2018-10-16T14:15:00.153Z,39.20
2018-10-16T14:17:29.227Z,112.50
2018-10-16T14:19:58.286Z,30.17
2018-10-16T14:22:27.309Z,50.23
2018-10-16T14:24:56.306Z,12.97
2018-10-16T14:27:25.377Z,3.87
2018-10-16T14:29:54.596Z,18.90
2018-10-16T14:32:23.500Z,18.13
2018-10-16T14:34:52.708Z,6.33
2018-10-16T14:37:21.697Z,10.23
2018-10-16T14:39:50.947Z,26.93
2018-10-16T14:42:19.829Z,97.13
2018-10-16T14:44:48.872Z,13.83
2018-10-16T14:47:17.886Z,76.37
2018-10-16T14:49:47.163Z,56.37
2018-10-16T14:52:16.219Z,77.47
2018-10-16T14:54:45.331Z,104.03
2018-10-16T14:57:14.553Z,111.97
2018-10-16T14:59:43.614Z,334.23
2018-10-16T15:02:12.798Z,112.33
2018-10-16T15:04:41.847Z,60.50
2018-10-16T15:07:10.800Z,128.97
2018-10-16T15:09:39.933Z,68.87
2018-10-16T15:12:09.025Z,94.90
2018-10-16T15:14:38.044Z,45.63
2018-10-16T15:17:07.327Z,30.70
2018-10-16T15:19:36.346Z,37.00
2018-10-16T15:22:05.985Z,15.87
2018-10-16T15:24:35.735Z,11.77
2018-10-16T15:27:05.145Z,6.67
2018-10-16T15:29:34.240Z,5.13
2018-10-16T15:32:03.344Z,5.07
2018-10-16T15:34:32.145Z,8.40
2018-10-16T15:37:01.643Z,8.63
2018-10-16T15:39:30.680Z,4.83
2018-10-16T15:41:59.873Z,3.77
2018-10-16T15:44:28.848Z,2.00
2018-10-16T15:46:58.109Z,2.30
2018-10-16T15:49:27.385Z,2.27
2018-10-16T15:51:56.282Z,1.83
2018-10-16T15:54:25.523Z,1.50
2018-10-16T15:56:54.682Z,1.10
2018-10-16T15:59:23.890Z,2.17
2018-10-16T16:01:52.911Z,1.97
2018-10-16T16:04:21.864Z,2.10
2018-10-16T16:06:51.304Z,1.40
2018-10-16T16:09:20.639Z,2.00
2018-10-16T16:11:49.831Z,1.40
2018-10-16T16:14:18.818Z,1.83
2018-10-16T16:16:48.178Z,0.73
2018-10-16T16:19:17.299Z,1.10
2018-10-16T16:21:47.082Z,1.17
2018-10-16T16:24:16.127Z,2.00
2018-10-16T16:26:45.250Z,0.70
2018-10-16T16:29:14.533Z,1.47
2018-10-16T16:31:43.867Z,2.00
2018-10-16T16:34:13.307Z,1.50
2018-10-16T16:36:42.403Z,1.77
2018-10-16T16:39:13.551Z,0.97
2018-10-16T16:41:43.685Z,2.87
2018-10-16T16:44:12.846Z,1.67
2018-10-16T16:46:42.085Z,2.73
2018-10-16T16:49:11.218Z,0.80
2018-10-16T16:51:40.430Z,1.90
2018-10-16T16:54:09.459Z,2.17
2018-10-16T16:56:38.568Z,2.47
2018-10-16T16:59:07.622Z,1.63
2018-10-16T17:01:36.850Z,2.40
2018-10-16T17:04:06.177Z,2.73
2018-10-16T17:06:35.278Z,1.70
2018-10-16T17:09:05.404Z,2.03
2018-10-16T17:11:34.695Z,1.80
2018-10-16T17:14:03.824Z,2.20
2018-10-16T17:16:32.966Z,1.30
2018-10-16T17:19:02.379Z,1.90
2018-10-16T17:21:31.175Z,2.50
2018-10-16T17:24:01.050Z,3.83
2018-10-16T17:26:30.643Z,2.13
2018-10-16T17:28:59.645Z,2.40
2018-10-16T17:31:28.565Z,2.67
2018-10-16T17:33:57.816Z,2.77
2018-10-16T17:36:27.284Z,2.47
2018-10-16T17:38:56.345Z,1.50
2018-10-16T17:41:25.614Z,2.00
2018-10-16T17:43:54.527Z,2.67
2018-10-16T17:46:23.754Z,2.40
2018-10-16T17:48:52.856Z,2.40
2018-10-16T17:51:21.905Z,2.60
2018-10-16T17:53:51.259Z,2.60
2018-10-16T17:56:20.248Z,2.87
2018-10-16T17:58:49.294Z,2.43
2018-10-16T18:01:18.314Z,3.03
2018-10-16T18:03:47.417Z,4.30
2018-10-16T18:06:16.815Z,3.73
2018-10-16T18:08:45.900Z,2.83
2018-10-16T18:11:15.298Z,2.50
2018-10-16T18:13:44.475Z,3.87
2018-10-16T18:16:13.586Z,2.43
2018-10-16T18:18:42.799Z,2.30
2018-10-16T18:21:11.850Z,2.37
2018-10-16T18:23:41.028Z,3.00
2018-10-16T18:26:10.049Z,2.93
2018-10-16T18:28:39.172Z,2.33
2018-10-16T18:31:08.677Z,3.10
2018-10-16T18:33:38.182Z,2.30
2018-10-16T18:36:07.145Z,2.57
2018-10-16T18:38:36.580Z,1.93
2018-10-16T18:41:06.407Z,2.47
2018-10-16T18:43:35.700Z,2.67
2018-10-16T18:46:04.525Z,2.57
2018-10-16T18:48:33.786Z,2.67
2018-10-16T18:51:03.003Z,2.10
2018-10-16T18:53:32.194Z,2.87
2018-10-16T18:56:01.242Z,2.60
2018-10-16T18:58:30.300Z,5.40
2018-10-16T19:00:59.456Z,3.00
2018-10-16T19:03:28.429Z,3.63
2018-10-16T19:05:57.626Z,3.10
2018-10-16T19:08:26.734Z,5.93
2018-10-16T19:10:55.758Z,2.73
2018-10-16T19:13:25.122Z,4.93
2018-10-16T19:15:54.133Z,6.93
2018-10-16T19:18:23.410Z,5.80
2018-10-16T19:20:52.438Z,4.87
2018-10-16T19:23:21.627Z,3.67
2018-10-16T19:25:51.044Z,4.27
2018-10-16T19:28:19.920Z,4.50
2018-10-16T19:30:49.194Z,5.13
2018-10-16T19:33:18.176Z,5.20
2018-10-16T19:35:47.664Z,3.80
2018-10-16T19:38:16.768Z,4.50
2018-10-16T19:40:45.775Z,4.10
2018-10-16T19:43:14.824Z,4.90
2018-10-16T19:45:44.133Z,5.10
2018-10-16T19:48:13.258Z,6.67
2018-10-16T19:50:42.330Z,4.73
2018-10-16T19:53:11.554Z,7.10
2018-10-16T19:55:40.899Z,5.73
2018-10-16T19:58:10.258Z,6.10
2018-10-16T20:00:39.543Z,7.93
2018-10-16T20:03:08.794Z,7.07
2018-10-16T20:05:38.036Z,5.23
2018-10-16T20:08:07.085Z,8.97
2018-10-16T20:10:35.974Z,6.83
2018-10-16T20:13:05.239Z,4.57
2018-10-16T20:15:34.577Z,6.57
2018-10-16T20:18:03.714Z,5.97
2018-10-16T20:20:32.706Z,3.07
2018-10-16T20:23:01.899Z,2.30
2018-10-16T20:25:31.075Z,2.13
2018-10-16T20:28:00.290Z,2.17
2018-10-16T20:30:29.515Z,2.73
2018-10-16T20:32:58.476Z,4.63
2018-10-16T20:35:27.840Z,1.77
2018-10-16T20:37:56.784Z,2.60
2018-10-16T20:40:26.000Z,2.73
2018-10-16T20:42:55.316Z,3.53
2018-10-16T20:45:24.444Z,3.03
2018-10-16T20:47:53.544Z,4.07
2018-10-16T20:50:22.699Z,4.60
2018-10-16T20:52:51.839Z,2.70
2018-10-16T20:55:20.959Z,3.63
2018-10-16T20:57:50.236Z,3.43
2018-10-16T21:00:19.521Z,3.53
2018-10-16T21:02:48.878Z,6.07
2018-10-16T21:05:17.968Z,4.17
2018-10-16T21:07:46.932Z,4.53
2018-10-16T21:10:16.202Z,6.37
2018-10-16T21:12:45.009Z,3.53
2018-10-16T21:15:13.978Z,3.93
2018-10-16T21:17:42.896Z,4.63
2018-10-16T21:20:12.111Z,3.30
2018-10-16T21:22:41.623Z,4.27
2018-10-16T21:25:11.254Z,4.83
2018-10-16T21:27:40.314Z,3.50
2018-10-16T21:30:09.698Z,5.00
2018-10-16T21:32:38.805Z,5.77
2018-10-16T21:35:08.246Z,5.27
2018-10-16T21:37:37.337Z,6.77
2018-10-16T21:40:07.036Z,7.07
2018-10-16T21:42:36.202Z,5.03
2018-10-16T21:45:06.329Z,7.57
2018-10-16T21:47:35.223Z,7.17
2018-10-16T21:50:04.617Z,6.43
2018-10-16T21:52:33.785Z,7.47
2018-10-16T21:55:02.709Z,7.00
2018-10-16T21:57:31.729Z,5.67
2018-10-16T22:00:00.860Z,9.03
2018-10-16T22:02:35.595Z,6.30
2018-10-16T22:05:04.604Z,10.53
2018-10-16T22:07:33.819Z,10.27
2018-10-16T22:10:03.669Z,10.17
2018-10-16T22:12:32.836Z,10.57
2018-10-16T22:15:01.854Z,9.60
2018-10-16T22:17:30.829Z,7.77
2018-10-16T22:19:59.880Z,5.63
2018-10-16T22:22:29.266Z,6.70
2018-10-16T22:24:59.224Z,5.87
2018-10-16T22:27:28.307Z,7.83
2018-10-16T22:29:57.454Z,6.20
2018-10-16T22:32:26.406Z,5.43
2018-10-16T22:34:55.535Z,8.73
2018-10-16T22:37:25.269Z,9.30
2018-10-16T22:39:54.424Z,7.43
2018-10-16T22:42:23.884Z,10.20
2018-10-16T22:44:53.090Z,10.83
2018-10-16T22:47:21.806Z,6.93
2018-10-16T22:49:50.876Z,8.83
2018-10-16T22:52:20.824Z,14.20
2018-10-16T22:54:49.768Z,13.87
2018-10-16T22:57:18.976Z,9.90
2018-10-16T22:59:48.095Z,18.33
2018-10-16T23:02:16.939Z,13.20
2018-10-16T23:04:46.160Z,9.00
2018-10-16T23:07:15.215Z,14.63
2018-10-16T23:09:44.355Z,12.83
2018-10-16T23:12:14.367Z,5.83
2018-10-16T23:14:43.416Z,10.43
2018-10-16T23:17:12.349Z,9.70
2018-10-16T23:19:41.456Z,10.73
2018-10-16T23:22:10.616Z,16.47
2018-10-16T23:24:39.744Z,21.53
2018-10-16T23:27:09.028Z,14.37
2018-10-16T23:29:38.119Z,5.93
2018-10-16T23:32:07.185Z,6.20
2018-10-16T23:34:36.328Z,16.07
2018-10-16T23:37:05.515Z,9.93
2018-10-16T23:39:34.694Z,21.83
2018-10-16T23:42:03.590Z,7.67
2018-10-16T23:44:33.224Z,15.63
2018-10-16T23:47:02.366Z,30.23
2018-10-16T23:49:31.475Z,21.60
2018-10-16T23:52:00.507Z,15.07
2018-10-16T23:54:29.488Z,13.53
2018-10-16T23:56:58.594Z,16.07
2018-10-16T23:59:27.795Z,9.27
